ADDS TAF Board (Experimental) INFO

IDs: Format: Expanded Condensed

Updated at: 1518 UTC 25 Oct 2014

KIAD - Washington/Dulles In, VA, US

Issued at 1509 UTC 25 Oct 2014
Time1452Z25/16Z25/17Z25/18Z25/19Z25/20Z25/21Z25/22Z25/23Z26/00Z26/01Z26/02Z26/03Z26/04Z
TypeOBSPRVLPRVLPRVLPRVLPRVLPRVLPRVLPRVLPRVLPRVLPRVLPRVLPRVL
VIS10>6>6>6>6>6>6>6>6>6>6>6>6>6
CIG----------------------------
CoverFEWFEWFEWFEWFEWFEWFEWFEWFEWFEWFEWFEWFEWFEW
FltCat--VFRVFRVFRVFRVFRVFRVFRVFRVFRVFRVFRVFRVFR
WX----------------------------
WDir180250250250250250250250250250250250250250
WSpd38888888888888
WGst----------------------------
R01/19
XWnd-07777777777777
HWnd-3-3-3-3-3-3-3-3-3-3-3-3-3-3
R12/30
XWnd-3-5-5-5-5-5-5-5-5-5-5-5-5-5
HWnd1-6-6-6-6-6-6-6-6-6-6-6-6-6
Raw TAF
KIAD 251509Z 2515/2618 25008KT P6SM FEW250
  FM261400 30010G18KT P6SM FEW150


Raw METAR
KIAD 251452Z 18003KT 10SM FEW060 16/07 A2996 RMK AO2 SLP143 T01610067 58003

TAF Board Legend

Hazard VFR MVFR IFR LIFR
Visibility (sm) >5 3≤X≤5 1≤X<3 <1
Ceiling (100 ft) >30 10≤X≤30 5≤X<10 <5
Wind Speed (kt) <10 10≤X<20 20≤X<30 ≥30
Wind Gust (kt) <15 15≤X<25 25≤X<35 ≥35
Weather No Wx Reported VCTS,-TS,-FZRA TS,FZRA +TS,+FZRA


Page loaded:  15:18 UTC  |   08:18 AM Pacific  |   09:18 AM Mountain  |   10:18 AM Central  |   11:18 AM Eastern

 

ADVISORIES

FORECASTS

FORECASTS

OBSERVATIONS

USER TOOLS

ABOUT US